Time;durP1;ratioP1;P1;durP2;ratioP2;P2;SDS_P1;SDS_P2;PMS_P1;PMS_P2;Temp;Humidity;BMP_temperature;BMP_pressure;BME280_temperature;BME280_humidity;BME280_pressure;Samples;Min_cycle;Max_cycle;Signal;HPM_P1;HPM_P2
2022/09/04 00:00:55;;;;;;;;;;;14.60;99.90;;;;;;5084066;28;19920;-78
2022/09/04 00:03:20;;;;;;;;;;;14.60;99.90;;;;;;5093187;28;19965;-76
2022/09/04 00:05:53;;;;;;;;;;;14.50;99.90;;;;;;5093187;28;19912;-76
2022/09/04 00:08:25;;;;;;;;;;;14.50;99.90;;;;;;5092689;28;20239;-76
2022/09/04 00:10:53;;;;;;;;;;;14.50;99.90;;;;;;5093437;28;19915;-76
2022/09/04 00:13:25;;;;;;;;;;;14.40;99.90;;;;;;5092603;28;19985;-76
2022/09/04 00:15:56;;;;;;;;;;;14.40;99.90;;;;;;5093417;28;19912;-76
2022/09/04 00:18:44;;;;;;;;;;;14.40;99.90;;;;;;5092791;28;19912;-76
2022/09/04 00:21:13;;;;;;;;;;;14.40;99.90;;;;;;5089198;28;20395;-76
2022/09/04 00:23:41;;;;;;;;;;;14.50;99.90;;;;;;5092992;28;19920;-76
2022/09/04 00:26:07;;;;;;;;;;;14.50;99.90;;;;;;5092383;28;19969;-76
2022/09/04 00:28:44;;;;;;;;;;;14.50;99.90;;;;;;5093430;28;20341;-76
2022/09/04 00:31:32;;;;;;;;;;;14.50;99.90;;;;;;5092278;28;19954;-82
2022/09/04 00:34:24;;;;;;;;;;;14.50;99.90;;;;;;5092565;28;20280;-87
2022/09/04 00:36:53;;;;;;;;;;;14.50;99.90;;;;;;5083890;28;19908;-83
2022/09/04 00:39:22;;;;;;;;;;;14.50;99.90;;;;;;5092314;28;19912;-84
2022/09/04 00:42:03;;;;;;;;;;;14.60;99.90;;;;;;5093226;28;20018;-85
2022/09/04 00:44:46;;;;;;;;;;;14.60;99.90;;;;;;5093057;28;20397;-85
2022/09/04 00:47:20;;;;;;;;;;;14.60;99.90;;;;;;5092615;28;19947;-87
2022/09/04 00:49:57;;;;;;;;;;;14.60;99.90;;;;;;5094785;28;19908;-87
2022/09/04 00:52:35;;;;;;;;;;;14.70;99.90;;;;;;5094734;28;19965;-87
2022/09/04 00:55:00;;;;;;;;;;;14.80;99.90;;;;;;5092962;28;19954;-83
2022/09/04 00:57:45;;;;;;;;;;;14.90;99.90;;;;;;5092075;28;19908;-86
2022/09/04 01:00:15;;;;;;;;;;;14.90;99.90;;;;;;5092737;28;20011;-85
2022/09/04 01:02:40;;;;;;;;;;;14.90;99.90;;;;;;5092075;28;19939;-84
2022/09/04 01:05:06;;;;;;;;;;;14.90;99.90;;;;;;5092655;28;19915;-86
2022/09/04 01:07:52;;;;;;;;;;;15.00;99.90;;;;;;5092709;28;19912;-82
2022/09/04 01:10:22;;;;;;;;;;;15.00;99.90;;;;;;5090897;28;19915;-80
2022/09/04 01:13:06;;;;;;;;;;;15.00;99.90;;;;;;5092775;28;19915;-80
2022/09/04 01:16:05;;;;;;;;;;;15.00;99.90;;;;;;5091375;28;19912;-81
2022/09/04 01:18:37;;;;;;;;;;;15.00;99.90;;;;;;5080136;28;19916;-82
2022/09/04 01:21:08;;;;;;;;;;;15.00;99.90;;;;;;5091077;28;19920;-82
2022/09/04 01:23:43;;;;;;;;;;;15.00;99.90;;;;;;5092828;28;19908;-83
2022/09/04 01:26:17;;;;;;;;;;;15.00;99.90;;;;;;5090872;28;19951;-82
2022/09/04 01:28:52;;;;;;;;;;;15.00;99.90;;;;;;5092399;28;19908;-82
2022/09/04 01:31:18;;;;;;;;;;;15.00;99.90;;;;;;5090631;28;19908;-83
2022/09/04 01:33:44;;;;;;;;;;;15.00;99.90;;;;;;5092267;28;19969;-83
2022/09/04 01:36:21;;;;;;;;;;;15.00;99.90;;;;;;5091957;28;19914;-82
2022/09/04 01:38:57;;;;;;;;;;;15.00;99.90;;;;;;5091304;28;19912;-80
2022/09/04 01:41:41;;;;;;;;;;;15.00;99.90;;;;;;5124668;28;19928;-82
2022/09/04 01:44:08;;;;;;;;;;;15.00;99.90;;;;;;5091688;28;19908;-82
2022/09/04 01:46:52;;;;;;;;;;;15.00;99.90;;;;;;5092843;28;19961;-82
2022/09/04 01:49:37;;;;;;;;;;;14.90;99.90;;;;;;5094682;28;19916;-82
2022/09/04 01:52:06;;;;;;;;;;;14.90;99.90;;;;;;5095975;28;19947;-81
2022/09/04 01:54:32;;;;;;;;;;;15.00;99.90;;;;;;5096287;28;19994;-82
2022/09/04 01:56:58;;;;;;;;;;;14.90;99.90;;;;;;5096019;28;20281;-81
2022/09/04 01:59:23;;;;;;;;;;;14.90;99.90;;;;;;5094105;28;19908;-81
2022/09/04 02:01:56;;;;;;;;;;;15.00;99.90;;;;;;5094436;28;20422;-82
2022/09/04 02:04:51;;;;;;;;;;;14.90;99.90;;;;;;5095009;28;19919;-82
2022/09/04 02:07:20;;;;;;;;;;;15.00;99.90;;;;;;5084901;28;20384;-82
2022/09/04 02:10:04;;;;;;;;;;;15.00;99.90;;;;;;5095896;28;19908;-82
2022/09/04 02:12:31;;;;;;;;;;;15.00;99.90;;;;;;5095381;28;19931;-83
2022/09/04 02:15:03;;;;;;;;;;;15.00;99.90;;;;;;5094352;28;20400;-81
2022/09/04 02:17:35;;;;;;;;;;;15.00;99.90;;;;;;5095342;28;19914;-81
2022/09/04 02:20:09;;;;;;;;;;;15.00;99.90;;;;;;5094247;28;19909;-83
2022/09/04 02:23:01;;;;;;;;;;;15.10;99.90;;;;;;5095840;28;19908;-81
2022/09/04 02:25:35;;;;;;;;;;;15.20;99.90;;;;;;5120060;27;19911;-84
2022/09/04 02:28:14;;;;;;;;;;;15.30;99.90;;;;;;5094110;28;19908;-82
2022/09/04 02:30:44;;;;;;;;;;;15.30;99.90;;;;;;5094988;28;19915;-82
2022/09/04 02:33:28;;;;;;;;;;;15.30;99.90;;;;;;5093352;28;19991;-81
2022/09/04 02:35:59;;;;;;;;;;;15.40;99.90;;;;;;5094007;28;20365;-82
2022/09/04 02:38:34;;;;;;;;;;;15.40;99.90;;;;;;5094541;28;19908;-82
2022/09/04 02:41:04;;;;;;;;;;;15.40;99.90;;;;;;5094945;28;19927;-81
2022/09/04 02:43:38;;;;;;;;;;;15.40;99.90;;;;;;5094760;28;20480;-82
2022/09/04 02:46:04;;;;;;;;;;;15.40;99.90;;;;;;5095184;28;19908;-82
2022/09/04 02:48:30;;;;;;;;;;;15.40;99.90;;;;;;5094050;28;20758;-81
2022/09/04 02:51:14;;;;;;;;;;;15.40;99.90;;;;;;5094673;28;19947;-86
2022/09/04 02:53:57;;;;;;;;;;;15.40;99.90;;;;;;5094657;28;19908;-83
2022/09/04 02:56:42;;;;;;;;;;;15.40;99.90;;;;;;5093972;28;19908;-82
2022/09/04 02:59:13;;;;;;;;;;;15.40;99.90;;;;;;5094722;28;19915;-82
2022/09/04 03:01:58;;;;;;;;;;;15.40;99.90;;;;;;5093481;28;20345;-82
2022/09/04 03:04:38;;;;;;;;;;;15.40;99.90;;;;;;5094141;28;19908;-81
2022/09/04 03:07:23;;;;;;;;;;;15.40;99.90;;;;;;5093318;28;20353;-82
2022/09/04 03:09:54;;;;;;;;;;;15.50;99.90;;;;;;5094550;28;19968;-80
2022/09/04 03:12:25;;;;;;;;;;;15.50;99.90;;;;;;5093679;28;19908;-82
2022/09/04 03:14:54;;;;;;;;;;;15.50;99.90;;;;;;5094570;28;19908;-82
2022/09/04 03:17:22;;;;;;;;;;;15.50;99.90;;;;;;5094119;28;19916;-81
2022/09/04 03:19:54;;;;;;;;;;;15.50;99.90;;;;;;5094384;28;19908;-81
2022/09/04 03:22:20;;;;;;;;;;;15.50;99.90;;;;;;5093826;28;20065;-80
2022/09/04 03:25:04;;;;;;;;;;;15.50;99.90;;;;;;5094429;28;19995;-81
2022/09/04 03:27:33;;;;;;;;;;;15.40;99.90;;;;;;5093486;28;19908;-80
2022/09/04 03:30:04;;;;;;;;;;;15.10;99.90;;;;;;5093918;28;20270;-80
2022/09/04 03:32:50;;;;;;;;;;;14.60;99.90;;;;;;5093569;28;19908;-79
2022/09/04 03:35:33;;;;;;;;;;;14.00;99.90;;;;;;5092326;28;19957;-80
2022/09/04 03:38:05;;;;;;;;;;;13.60;99.90;;;;;;5094851;28;19908;-81
2022/09/04 03:40:40;;;;;;;;;;;13.40;99.90;;;;;;5092529;28;20853;-82
2022/09/04 03:43:05;;;;;;;;;;;13.30;99.90;;;;;;5093085;28;19908;-83
2022/09/04 03:45:50;;;;;;;;;;;13.30;99.90;;;;;;5092192;28;19972;-84
2022/09/04 03:48:34;;;;;;;;;;;13.20;99.90;;;;;;5093163;28;19908;-83
2022/09/04 03:51:02;;;;;;;;;;;13.30;99.90;;;;;;5092575;28;19953;-84
2022/09/04 03:53:28;;;;;;;;;;;13.30;99.90;;;;;;5093525;28;19908;-84
2022/09/04 03:56:06;;;;;;;;;;;13.30;99.90;;;;;;5094033;28;20011;-83
2022/09/04 03:58:43;;;;;;;;;;;13.30;99.90;;;;;;5091882;28;20395;-78
2022/09/04 04:01:24;;;;;;;;;;;13.20;99.90;;;;;;5093576;28;20387;-76
2022/09/04 04:03:49;;;;;;;;;;;13.20;99.90;;;;;;5093599;28;19908;-76
2022/09/04 04:06:18;;;;;;;;;;;13.30;99.90;;;;;;5093177;28;20277;-77
2022/09/04 04:08:47;;;;;;;;;;;13.30;99.90;;;;;;5093587;28;19916;-75
2022/09/04 04:11:38;;;;;;;;;;;13.30;99.90;;;;;;5092857;28;19912;-75
2022/09/04 04:14:06;;;;;;;;;;;13.40;99.90;;;;;;5084278;28;19909;-76
2022/09/04 04:16:32;;;;;;;;;;;13.40;99.90;;;;;;5091448;28;20254;-75
2022/09/04 04:19:01;;;;;;;;;;;13.40;99.90;;;;;;5093357;28;19968;-75
2022/09/04 04:21:30;;;;;;;;;;;13.40;99.90;;;;;;5092351;28;20395;-75
2022/09/04 04:24:01;;;;;;;;;;;13.40;99.90;;;;;;5093616;28;19908;-75
2022/09/04 04:26:39;;;;;;;;;;;13.40;99.90;;;;;;5092488;28;20312;-75
2022/09/04 04:29:24;;;;;;;;;;;13.40;99.90;;;;;;5091768;28;19908;-75
2022/09/04 04:32:12;;;;;;;;;;;13.30;99.90;;;;;;5091951;28;19908;-75
2022/09/04 04:34:38;;;;;;;;;;;13.30;99.90;;;;;;5092469;28;19935;-76
2022/09/04 04:37:25;;;;;;;;;;;13.30;99.90;;;;;;5093135;28;20322;-76
2022/09/04 04:40:00;;;;;;;;;;;13.20;99.90;;;;;;5092647;28;19920;-84
2022/09/04 04:42:39;;;;;;;;;;;13.10;99.90;;;;;;5092414;28;19976;-84
2022/09/04 04:48:13;;;;;;;;;;;13.10;99.90;;;;;;5092851;28;19915;-83
2022/09/04 04:50:59;;;;;;;;;;;12.90;99.90;;;;;;5092482;28;19964;-77
2022/09/04 04:53:35;;;;;;;;;;;12.80;99.90;;;;;;5080692;28;19908;-77
2022/09/04 04:56:26;;;;;;;;;;;12.70;99.90;;;;;;5091399;28;19915;-74
2022/09/04 04:59:27;;;;;;;;;;;12.70;99.90;;;;;;5091629;28;19912;-77
2022/09/04 05:02:17;;;;;;;;;;;12.60;99.90;;;;;;5069877;28;19923;-76
2022/09/04 05:04:47;;;;;;;;;;;12.60;99.90;;;;;;5091366;28;19908;-76
2022/09/04 05:07:36;;;;;;;;;;;12.60;99.90;;;;;;5092831;28;19912;-76
2022/09/04 05:10:17;;;;;;;;;;;12.70;99.90;;;;;;5092769;28;19912;-76
2022/09/04 05:12:56;;;;;;;;;;;12.60;99.90;;;;;;5092035;28;20277;-76
2022/09/04 05:15:51;;;;;;;;;;;12.70;99.90;;;;;;5092035;28;19950;-77
2022/09/04 05:18:16;;;;;;;;;;;12.70;99.90;;;;;;5087891;28;19951;-76
2022/09/04 05:20:57;;;;;;;;;;;12.70;99.90;;;;;;5090554;28;20008;-76
2022/09/04 05:23:26;;;;;;;;;;;12.70;99.90;;;;;;5093703;28;20281;-76
2022/09/04 05:25:51;;;;;;;;;;;12.60;99.90;;;;;;5096579;28;19912;-76
2022/09/04 05:28:36;;;;;;;;;;;12.70;99.90;;;;;;5095105;28;19915;-76
2022/09/04 05:31:13;;;;;;;;;;;12.70;99.90;;;;;;5096850;28;20260;-76
2022/09/04 05:34:08;;;;;;;;;;;12.60;99.90;;;;;;5095938;28;20048;-76
2022/09/04 05:36:51;;;;;;;;;;;12.60;99.90;;;;;;5058927;28;19909;-76
2022/09/04 05:39:40;;;;;;;;;;;12.50;99.90;;;;;;5095231;28;19908;-76
2022/09/04 05:42:20;;;;;;;;;;;12.50;99.90;;;;;;5096375;28;20293;-76
2022/09/04 05:45:04;;;;;;;;;;;12.40;99.90;;;;;;5095808;28;19915;-76
2022/09/04 05:47:41;;;;;;;;;;;12.30;99.90;;;;;;5094352;28;19962;-76
2022/09/04 05:50:20;;;;;;;;;;;12.20;99.90;;;;;;5096262;28;19908;-76
2022/09/04 05:53:01;;;;;;;;;;;12.20;99.90;;;;;;5095569;28;19908;-76
2022/09/04 05:55:30;;;;;;;;;;;12.20;99.90;;;;;;5095402;28;20365;-76
2022/09/04 05:57:59;;;;;;;;;;;12.10;99.90;;;;;;5095763;28;19915;-76
2022/09/04 06:00:29;;;;;;;;;;;12.10;99.90;;;;;;5095092;28;20429;-76
2022/09/04 06:02:57;;;;;;;;;;;12.10;99.90;;;;;;5095856;28;20361;-76
2022/09/04 06:05:27;;;;;;;;;;;12.10;99.90;;;;;;5095331;28;19947;-76
2022/09/04 06:07:52;;;;;;;;;;;12.10;99.90;;;;;;5096528;28;19919;-76
2022/09/04 06:10:37;;;;;;;;;;;12.10;99.90;;;;;;5095930;28;19908;-76
2022/09/04 06:13:21;;;;;;;;;;;12.10;99.90;;;;;;5095535;28;19919;-76
2022/09/04 06:15:46;;;;;;;;;;;12.10;99.90;;;;;;5093940;28;19957;-76
2022/09/04 06:18:15;;;;;;;;;;;12.10;99.90;;;;;;5095594;28;19915;-76
2022/09/04 06:20:40;;;;;;;;;;;12.10;99.90;;;;;;5094926;28;20447;-76
2022/09/04 06:23:06;;;;;;;;;;;12.10;99.90;;;;;;5095725;28;19947;-76
2022/09/04 06:25:32;;;;;;;;;;;12.10;99.90;;;;;;5093767;28;19912;-76
2022/09/04 06:28:05;;;;;;;;;;;12.10;99.90;;;;;;5085991;28;19919;-76
2022/09/04 06:30:52;;;;;;;;;;;12.10;99.90;;;;;;5085427;28;20372;-77
2022/09/04 06:33:21;;;;;;;;;;;12.20;99.90;;;;;;5073750;28;19908;-76
2022/09/04 06:35:49;;;;;;;;;;;12.30;99.90;;;;;;5079455;28;19919;-76
2022/09/04 06:38:29;;;;;;;;;;;12.50;99.90;;;;;;5081840;28;20364;-77
2022/09/04 06:41:13;;;;;;;;;;;12.60;99.90;;;;;;5089066;28;20050;-76
2022/09/04 06:43:39;;;;;;;;;;;12.70;99.90;;;;;;5093055;28;19912;-77
2022/09/04 06:46:14;;;;;;;;;;;12.90;99.90;;;;;;5095021;28;20085;-75
2022/09/04 06:48:51;;;;;;;;;;;13.10;99.90;;;;;;5093134;28;19908;-75
2022/09/04 06:51:36;;;;;;;;;;;13.20;99.90;;;;;;5095235;28;20403;-75
2022/09/04 06:54:14;;;;;;;;;;;13.20;99.90;;;;;;5093263;28;19944;-77
2022/09/04 06:56:40;;;;;;;;;;;13.40;99.90;;;;;;5093980;28;19908;-76
2022/09/04 06:59:12;;;;;;;;;;;13.40;99.90;;;;;;5095416;28;19910;-75
2022/09/04 07:01:59;;;;;;;;;;;13.50;99.90;;;;;;5093012;28;19916;-74
2022/09/04 07:04:42;;;;;;;;;;;13.60;99.90;;;;;;5094744;28;19931;-75
2022/09/04 07:07:11;;;;;;;;;;;13.60;99.90;;;;;;5094798;28;19947;-76
2022/09/04 07:09:45;;;;;;;;;;;13.70;99.90;;;;;;5094279;28;19908;-76
2022/09/04 07:12:17;;;;;;;;;;;13.80;99.90;;;;;;5127336;27;19908;-75
2022/09/04 07:15:05;;;;;;;;;;;13.80;99.90;;;;;;5094247;28;19908;-76
2022/09/04 07:17:40;;;;;;;;;;;13.90;99.90;;;;;;5094242;28;19915;-75
2022/09/04 07:20:26;;;;;;;;;;;13.90;99.90;;;;;;5094371;28;19995;-75
2022/09/04 07:23:10;;;;;;;;;;;14.10;99.90;;;;;;5094594;28;19912;-75
2022/09/04 07:25:36;;;;;;;;;;;14.20;99.90;;;;;;5094135;28;19908;-75
2022/09/04 07:28:01;;;;;;;;;;;14.30;99.90;;;;;;5094132;28;19919;-76
2022/09/04 07:30:30;;;;;;;;;;;14.40;99.90;;;;;;5094654;28;19914;-77
2022/09/04 07:32:56;;;;;;;;;;;14.60;99.90;;;;;;5094425;28;19912;-74
2022/09/04 07:35:38;;;;;;;;;;;14.70;99.90;;;;;;5093641;28;19916;-75
2022/09/04 07:38:23;;;;;;;;;;;14.80;99.90;;;;;;5094294;28;19908;-74
2022/09/04 07:40:52;;;;;;;;;;;14.90;99.90;;;;;;5092136;28;19962;-75
2022/09/04 07:43:23;;;;;;;;;;;14.90;99.90;;;;;;5126846;27;19912;-76
2022/09/04 07:45:57;;;;;;;;;;;15.00;99.90;;;;;;5092587;28;19912;-75
2022/09/04 07:48:32;;;;;;;;;;;15.10;99.90;;;;;;5092768;28;19919;-75
2022/09/04 07:51:03;;;;;;;;;;;15.10;99.90;;;;;;5093627;28;19909;-75
2022/09/04 07:53:44;;;;;;;;;;;15.20;99.90;;;;;;5093753;28;19975;-77
2022/09/04 07:56:24;;;;;;;;;;;15.30;99.90;;;;;;5092570;28;20361;-75
2022/09/04 07:58:59;;;;;;;;;;;15.30;99.90;;;;;;5091948;28;19910;-75
2022/09/04 08:01:27;;;;;;;;;;;15.40;99.90;;;;;;5093312;28;20367;-75
2022/09/04 08:03:59;;;;;;;;;;;15.50;99.90;;;;;;5093484;28;20360;-75
2022/09/04 08:06:30;;;;;;;;;;;15.60;99.90;;;;;;5093946;28;19915;-75
2022/09/04 08:08:56;;;;;;;;;;;15.60;99.90;;;;;;5093157;28;19954;-75
2022/09/04 08:11:25;;;;;;;;;;;15.60;99.90;;;;;;5093587;28;19947;-75
2022/09/04 08:13:59;;;;;;;;;;;15.70;99.90;;;;;;5092882;28;19908;-75
2022/09/04 08:16:30;;;;;;;;;;;15.80;99.90;;;;;;5092141;28;19958;-75
2022/09/04 08:19:08;;;;;;;;;;;15.80;99.90;;;;;;5093229;28;19915;-74
2022/09/04 08:21:39;;;;;;;;;;;15.90;99.90;;;;;;5092670;28;19939;-76
2022/09/04 08:24:29;;;;;;;;;;;15.90;99.90;;;;;;5093257;28;19915;-75
2022/09/04 08:27:08;;;;;;;;;;;15.90;99.90;;;;;;5093178;28;19944;-75
2022/09/04 08:29:48;;;;;;;;;;;16.00;99.90;;;;;;5093318;28;20372;-75
2022/09/04 08:32:30;;;;;;;;;;;16.10;99.90;;;;;;5093007;28;19908;-74
2022/09/04 08:35:01;;;;;;;;;;;16.10;99.90;;;;;;5092611;28;20288;-74
2022/09/04 08:37:32;;;;;;;;;;;16.20;99.90;;;;;;5092508;28;19977;-74
2022/09/04 08:40:16;;;;;;;;;;;16.20;99.90;;;;;;5091987;28;19919;-75
2022/09/04 08:43:02;;;;;;;;;;;16.30;99.90;;;;;;5091188;28;19983;-76
2022/09/04 08:45:37;;;;;;;;;;;16.30;99.90;;;;;;5092902;28;19908;-76
2022/09/04 08:48:21;;;;;;;;;;;16.30;99.90;;;;;;5093124;28;19992;-75
2022/09/04 08:51:14;;;;;;;;;;;16.40;99.90;;;;;;5092279;28;19995;-76
2022/09/04 08:53:42;;;;;;;;;;;16.50;99.90;;;;;;5092314;28;19920;-76
2022/09/04 08:56:40;;;;;;;;;;;16.60;99.90;;;;;;5092738;28;19977;-75
2022/09/04 08:59:12;;;;;;;;;;;16.60;99.90;;;;;;5084542;28;19908;-75
2022/09/04 09:01:52;;;;;;;;;;;16.70;99.90;;;;;;5096556;28;19912;-75
2022/09/04 09:04:30;;;;;;;;;;;16.80;99.90;;;;;;5097171;28;20006;-75
2022/09/04 09:07:04;;;;;;;;;;;16.80;99.90;;;;;;5095118;28;19908;-75
2022/09/04 09:09:33;;;;;;;;;;;16.80;99.90;;;;;;5096618;28;19912;-74
2022/09/04 09:12:17;;;;;;;;;;;16.70;99.90;;;;;;5095140;28;20361;-75
2022/09/04 09:14:46;;;;;;;;;;;16.70;99.90;;;;;;5095883;28;20288;-74
2022/09/04 09:17:12;;;;;;;;;;;16.70;99.90;;;;;;5096924;28;20102;-74
2022/09/04 09:19:46;;;;;;;;;;;16.70;99.90;;;;;;5096209;28;19944;-75
2022/09/04 09:22:36;;;;;;;;;;;16.70;99.90;;;;;;5096626;28;20393;-75
2022/09/04 09:25:08;;;;;;;;;;;16.70;99.90;;;;;;5093358;28;20358;-75
2022/09/04 09:27:37;;;;;;;;;;;16.70;99.90;;;;;;5096567;28;19908;-74
2022/09/04 09:30:21;;;;;;;;;;;16.70;99.90;;;;;;5096124;28;19965;-75
2022/09/04 09:33:10;;;;;;;;;;;16.70;99.90;;;;;;5095846;28;19915;-74
2022/09/04 09:35:56;;;;;;;;;;;16.60;99.90;;;;;;5096430;28;19908;-74
2022/09/04 09:39:00;;;;;;;;;;;16.70;99.90;;;;;;5096358;28;20014;-74
2022/09/04 09:41:45;;;;;;;;;;;16.70;99.90;;;;;;5073388;28;19927;-74
2022/09/04 09:44:10;;;;;;;;;;;16.80;99.90;;;;;;5073849;28;20377;-74
2022/09/04 09:46:49;;;;;;;;;;;17.00;99.90;;;;;;5086541;28;19915;-74
2022/09/04 09:49:20;;;;;;;;;;;17.00;99.90;;;;;;5096100;28;19915;-74
2022/09/04 09:51:49;;;;;;;;;;;17.00;99.90;;;;;;5095301;28;19908;-74
2022/09/04 09:54:17;;;;;;;;;;;17.00;99.90;;;;;;5096103;28;19991;-76
2022/09/04 09:57:01;;;;;;;;;;;17.20;99.90;;;;;;5095479;28;19912;-74
2022/09/04 09:59:38;;;;;;;;;;;17.40;99.90;;;;;;5094816;28;19965;-74
2022/09/04 10:02:19;;;;;;;;;;;17.60;99.90;;;;;;5095460;28;20065;-75
2022/09/04 10:05:04;;;;;;;;;;;17.70;99.90;;;;;;5094170;28;19957;-76
2022/09/04 10:07:48;;;;;;;;;;;17.80;99.90;;;;;;5095956;28;19940;-75
2022/09/04 10:10:32;;;;;;;;;;;18.00;99.90;;;;;;5094747;28;19915;-75
2022/09/04 10:12:58;;;;;;;;;;;18.00;99.90;;;;;;5095470;28;19916;-75
2022/09/04 10:15:42;;;;;;;;;;;18.10;99.90;;;;;;5095610;28;19918;-75
2022/09/04 10:18:07;;;;;;;;;;;18.10;99.90;;;;;;5096037;28;19916;-75
2022/09/04 10:20:54;;;;;;;;;;;18.20;99.90;;;;;;5095266;28;19916;-75
2022/09/04 10:23:32;;;;;;;;;;;18.20;99.90;;;;;;5094309;28;19987;-75
2022/09/04 10:26:16;;;;;;;;;;;18.30;99.90;;;;;;5095003;28;19912;-76
2022/09/04 10:29:00;;;;;;;;;;;18.30;99.90;;;;;;5094799;28;19908;-76
2022/09/04 10:31:25;;;;;;;;;;;18.30;99.90;;;;;;5095186;28;20272;-75
2022/09/04 10:34:10;;;;;;;;;;;18.30;99.90;;;;;;5094872;28;19908;-75
2022/09/04 10:36:41;;;;;;;;;;;18.40;99.90;;;;;;5095446;28;20318;-74
2022/09/04 10:42:27;;;;;;;;;;;18.50;99.90;;;;;;5075053;28;19971;-74
2022/09/04 10:45:09;;;;;;;;;;;18.70;99.90;;;;;;5094617;28;19995;-75
2022/09/04 10:47:45;;;;;;;;;;;18.80;99.90;;;;;;5095203;28;19908;-74
2022/09/04 10:50:29;;;;;;;;;;;18.90;99.90;;;;;;5095271;28;20381;-74
2022/09/04 10:53:05;;;;;;;;;;;18.90;99.90;;;;;;5094567;28;20277;-74
2022/09/04 10:55:42;;;;;;;;;;;18.90;99.90;;;;;;5095043;28;19995;-74
2022/09/04 10:58:14;;;;;;;;;;;18.90;99.90;;;;;;5094439;28;19915;-74
2022/09/04 11:00:49;;;;;;;;;;;19.00;99.90;;;;;;5094716;28;19922;-74
2022/09/04 11:03:39;;;;;;;;;;;19.00;99.90;;;;;;5095006;28;19908;-74
2022/09/04 11:06:10;;;;;;;;;;;19.00;99.90;;;;;;5093818;28;19908;-75
2022/09/04 11:08:42;;;;;;;;;;;18.90;99.90;;;;;;5094645;28;19916;-73
2022/09/04 11:11:26;;;;;;;;;;;18.90;99.90;;;;;;5093998;28;19956;-74
2022/09/04 11:13:53;;;;;;;;;;;18.90;99.90;;;;;;5094065;28;19908;-74
2022/09/04 11:16:25;;;;;;;;;;;19.10;99.90;;;;;;5094722;28;20015;-75
2022/09/04 11:19:09;;;;;;;;;;;19.10;99.90;;;;;;5093058;28;19909;-75
2022/09/04 11:21:46;;;;;;;;;;;19.20;99.90;;;;;;5093515;28;20357;-75
2022/09/04 11:24:36;;;;;;;;;;;19.20;99.90;;;;;;5094615;28;20007;-75
2022/09/04 11:27:14;;;;;;;;;;;19.20;99.90;;;;;;5093931;28;19965;-75
2022/09/04 11:29:40;;;;;;;;;;;19.30;99.90;;;;;;5093981;28;19908;-75
2022/09/04 11:32:24;;;;;;;;;;;19.30;99.90;;;;;;5093446;28;19915;-75
2022/09/04 11:35:08;;;;;;;;;;;19.40;99.90;;;;;;5093598;28;20013;-76
2022/09/04 11:37:57;;;;;;;;;;;19.50;99.90;;;;;;5094199;28;20003;-75
2022/09/04 11:40:22;;;;;;;;;;;19.50;99.90;;;;;;5094148;28;19931;-75
2022/09/04 11:42:49;;;;;;;;;;;19.50;99.90;;;;;;5093509;28;19912;-73
2022/09/04 11:45:20;;;;;;;;;;;19.50;99.90;;;;;;5094039;28;19959;-75
2022/09/04 11:47:56;;;;;;;;;;;19.50;99.90;;;;;;5093503;28;19908;-75
2022/09/04 11:50:22;;;;;;;;;;;19.50;99.90;;;;;;5092921;28;19963;-74
2022/09/04 11:53:10;;;;;;;;;;;19.40;99.90;;;;;;5093315;28;19963;-75
2022/09/04 11:55:48;;;;;;;;;;;19.40;99.90;;;;;;5092687;28;19908;-74
2022/09/04 11:58:32;;;;;;;;;;;19.60;99.90;;;;;;5093610;28;20361;-74
2022/09/04 12:01:02;;;;;;;;;;;19.70;99.90;;;;;;5091817;28;19962;-74
2022/09/04 12:03:48;;;;;;;;;;;19.80;99.90;;;;;;5092454;28;20009;-74
2022/09/04 12:06:13;;;;;;;;;;;19.90;99.90;;;;;;5092362;28;19951;-74
2022/09/04 12:08:54;;;;;;;;;;;19.80;99.90;;;;;;5093345;28;19943;-74
2022/09/04 12:11:39;;;;;;;;;;;19.90;99.90;;;;;;5126633;27;19981;-74
2022/09/04 12:14:14;;;;;;;;;;;19.90;99.90;;;;;;5091702;28;19958;-74
2022/09/04 12:16:41;;;;;;;;;;;20.00;99.90;;;;;;5093445;28;19919;-74
2022/09/04 12:19:07;;;;;;;;;;;20.20;99.90;;;;;;5092672;28;19925;-74
2022/09/04 12:21:52;;;;;;;;;;;20.10;99.90;;;;;;5091964;28;20298;-74
2022/09/04 12:24:18;;;;;;;;;;;20.10;99.90;;;;;;5092819;28;20315;-75
2022/09/04 12:26:48;;;;;;;;;;;20.20;99.90;;;;;;5089096;28;20033;-75
2022/09/04 12:29:13;;;;;;;;;;;20.20;99.90;;;;;;5078322;28;20357;-75
2022/09/04 12:32:01;;;;;;;;;;;20.20;99.90;;;;;;5082278;28;20357;-74
2022/09/04 12:34:29;;;;;;;;;;;20.30;99.90;;;;;;5091328;28;19908;-75
2022/09/04 12:37:18;;;;;;;;;;;20.30;99.90;;;;;;5092149;28;19951;-74
2022/09/04 12:39:48;;;;;;;;;;;20.30;99.90;;;;;;5071513;28;19970;-75
2022/09/04 12:42:27;;;;;;;;;;;20.30;99.90;;;;;;5092138;28;20467;-74
2022/09/04 12:45:11;;;;;;;;;;;20.30;99.90;;;;;;5092121;28;20357;-75
2022/09/04 12:47:46;;;;;;;;;;;20.30;99.90;;;;;;5092804;28;20311;-75
2022/09/04 12:50:14;;;;;;;;;;;20.40;99.90;;;;;;5091107;28;20269;-74
2022/09/04 12:53:03;;;;;;;;;;;20.30;99.90;;;;;;5092820;28;19954;-73
2022/09/04 12:55:44;;;;;;;;;;;20.30;99.90;;;;;;5093462;28;19908;-75
2022/09/04 12:58:16;;;;;;;;;;;20.40;99.90;;;;;;5092396;28;19919;-74
2022/09/04 13:01:05;;;;;;;;;;;20.50;99.90;;;;;;5092386;28;20315;-75
2022/09/04 13:03:38;;;;;;;;;;;20.60;99.90;;;;;;5092470;28;19908;-74
2022/09/04 13:06:06;;;;;;;;;;;20.60;99.90;;;;;;5092139;28;19915;-75
2022/09/04 13:08:38;;;;;;;;;;;20.70;99.90;;;;;;5092673;28;19908;-75
2022/09/04 13:11:22;;;;;;;;;;;20.70;99.90;;;;;;5092348;28;19908;-75
2022/09/04 13:13:50;;;;;;;;;;;20.70;99.90;;;;;;5092962;28;19915;-74
2022/09/04 13:16:26;;;;;;;;;;;20.60;99.90;;;;;;5092789;28;20375;-74
2022/09/04 13:19:10;;;;;;;;;;;20.70;99.90;;;;;;5092621;28;19915;-75
2022/09/04 13:21:59;;;;;;;;;;;20.50;99.90;;;;;;5092365;28;20340;-74
2022/09/04 13:24:26;;;;;;;;;;;20.30;99.90;;;;;;5089661;28;19908;-74
2022/09/04 13:27:25;;;;;;;;;;;20.00;99.90;;;;;;5092475;28;20005;-76
2022/09/04 13:29:53;;;;;;;;;;;19.90;99.90;;;;;;5084847;28;19961;-75
2022/09/04 13:32:19;;;;;;;;;;;19.80;99.90;;;;;;5091659;28;20426;-75
2022/09/04 13:35:10;;;;;;;;;;;19.80;99.90;;;;;;5092574;28;19954;-75
2022/09/04 13:37:54;;;;;;;;;;;19.90;99.90;;;;;;5091157;28;19908;-75
2022/09/04 13:40:41;;;;;;;;;;;19.80;99.90;;;;;;5091001;28;19989;-75
2022/09/04 13:43:10;;;;;;;;;;;19.60;99.90;;;;;;5088024;28;19959;-76
2022/09/04 13:45:47;;;;;;;;;;;19.70;99.90;;;;;;5085488;28;19991;-76
2022/09/04 13:48:25;;;;;;;;;;;19.70;99.90;;;;;;5079600;28;19912;-76
2022/09/04 13:50:54;;;;;;;;;;;19.80;99.90;;;;;;5083440;28;19947;-76
2022/09/04 13:53:55;;;;;;;;;;;19.80;99.90;;;;;;5078427;28;19909;-75
2022/09/04 13:56:28;;;;;;;;;;;19.70;99.90;;;;;;5073128;28;20329;-76
2022/09/04 13:58:57;;;;;;;;;;;19.50;99.90;;;;;;5083197;28;19912;-76
2022/09/04 14:01:26;;;;;;;;;;;19.40;99.90;;;;;;5083122;28;19916;-75
2022/09/04 14:03:54;;;;;;;;;;;19.40;99.90;;;;;;5086677;28;20020;-75
2022/09/04 14:06:22;;;;;;;;;;;19.50;99.90;;;;;;5095496;28;19912;-75
2022/09/04 14:08:49;;;;;;;;;;;19.50;99.90;;;;;;5096200;28;19953;-75
2022/09/04 14:11:30;;;;;;;;;;;19.40;99.90;;;;;;5095414;28;19958;-75
2022/09/04 14:14:02;;;;;;;;;;;19.40;99.90;;;;;;5095604;28;20038;-76
2022/09/04 14:16:29;;;;;;;;;;;19.50;99.90;;;;;;5095796;28;19915;-75
2022/09/04 14:19:16;;;;;;;;;;;19.60;99.90;;;;;;5095636;28;20368;-76
2022/09/04 14:21:44;;;;;;;;;;;19.70;99.90;;;;;;5095707;28;20014;-75
2022/09/04 14:24:19;;;;;;;;;;;19.70;99.90;;;;;;5095124;28;19920;-74
2022/09/04 14:26:50;;;;;;;;;;;19.80;99.90;;;;;;5095543;28;20273;-74
2022/09/04 14:29:36;;;;;;;;;;;19.80;99.90;;;;;;5094777;28;20014;-74
2022/09/04 14:32:17;;;;;;;;;;;19.90;99.90;;;;;;5083344;28;20353;-74
2022/09/04 14:34:54;;;;;;;;;;;19.90;99.90;;;;;;5095338;28;20277;-74
2022/09/04 14:37:26;;;;;;;;;;;19.90;99.90;;;;;;5094795;28;19908;-74
2022/09/04 14:40:15;;;;;;;;;;;20.00;99.90;;;;;;5095014;28;19920;-74
2022/09/04 14:42:41;;;;;;;;;;;20.10;99.90;;;;;;5084693;28;19920;-75
2022/09/04 14:45:17;;;;;;;;;;;20.10;99.90;;;;;;5094688;28;19978;-74
2022/09/04 14:47:52;;;;;;;;;;;20.00;99.90;;;;;;5095170;28;19912;-75
2022/09/04 14:50:18;;;;;;;;;;;20.00;99.90;;;;;;5094216;28;20434;-74
2022/09/04 14:52:44;;;;;;;;;;;20.00;99.90;;;;;;5093618;28;19908;-74
2022/09/04 14:55:22;;;;;;;;;;;20.00;99.90;;;;;;5094135;28;19908;-75
2022/09/04 14:57:50;;;;;;;;;;;20.00;99.90;;;;;;5095643;28;19912;-74
2022/09/04 15:00:19;;;;;;;;;;;20.00;99.90;;;;;;5094430;28;19954;-74
2022/09/04 15:02:45;;;;;;;;;;;20.10;99.90;;;;;;5094877;28;19924;-74
2022/09/04 15:05:10;;;;;;;;;;;20.10;99.90;;;;;;5094383;28;19909;-75
2022/09/04 15:07:42;;;;;;;;;;;20.00;99.90;;;;;;5094771;28;19954;-74
2022/09/04 15:10:09;;;;;;;;;;;20.00;99.90;;;;;;5093999;28;19909;-74
2022/09/04 15:12:41;;;;;;;;;;;20.00;99.90;;;;;;5093340;28;19908;-75